sensor_id;sensor_type;location;lat;lon;timestamp;pressure;altitude;pressure_sealevel;temperature;humidity
5062;BME280;2351;50.812;12.872;2022-12-07T00:01:39;97695.03;;;-0.16;100.00
5062;BME280;2351;50.812;12.872;2022-12-07T00:04:13;97694.13;;;-0.14;100.00
5062;BME280;2351;50.812;12.872;2022-12-07T00:06:46;97686.31;;;-0.14;100.00
5062;BME280;2351;50.812;12.872;2022-12-07T00:09:21;97699.28;;;-0.13;100.00
5062;BME280;2351;50.812;12.872;2022-12-07T00:11:53;97689.69;;;-0.12;100.00
5062;BME280;2351;50.812;12.872;2022-12-07T00:14:25;97679.38;;;-0.14;100.00
5062;BME280;2351;50.812;12.872;2022-12-07T00:16:58;97682.88;;;-0.15;100.00
5062;BME280;2351;50.812;12.872;2022-12-07T00:19:30;97678.47;;;-0.13;100.00
5062;BME280;2351;50.812;12.872;2022-12-07T00:22:01;97676.69;;;-0.12;100.00
5062;BME280;2351;50.812;12.872;2022-12-07T00:24:33;97671.47;;;-0.12;100.00
5062;BME280;2351;50.812;12.872;2022-12-07T00:27:05;97673.25;;;-0.13;100.00
5062;BME280;2351;50.812;12.872;2022-12-07T00:29:36;97667.19;;;-0.13;100.00
5062;BME280;2351;50.812;12.872;2022-12-07T00:32:09;97666.50;;;-0.17;100.00
5062;BME280;2351;50.812;12.872;2022-12-07T00:34:41;97669.09;;;-0.17;100.00
5062;BME280;2351;50.812;12.872;2022-12-07T00:37:13;97663.13;;;-0.19;100.00
5062;BME280;2351;50.812;12.872;2022-12-07T00:39:46;97660.44;;;-0.18;100.00
5062;BME280;2351;50.812;12.872;2022-12-07T00:42:17;97655.31;;;-0.19;100.00
5062;BME280;2351;50.812;12.872;2022-12-07T00:44:49;97661.44;;;-0.20;100.00
5062;BME280;2351;50.812;12.872;2022-12-07T00:47:22;97664.03;;;-0.20;100.00
5062;BME280;2351;50.812;12.872;2022-12-07T00:49:54;97651.94;;;-0.21;100.00
5062;BME280;2351;50.812;12.872;2022-12-07T00:52:26;97655.47;;;-0.22;100.00
5062;BME280;2351;50.812;12.872;2022-12-07T00:54:57;97654.69;;;-0.24;100.00
5062;BME280;2351;50.812;12.872;2022-12-07T00:57:30;97650.41;;;-0.25;100.00
5062;BME280;2351;50.812;12.872;2022-12-07T01:00:02;97656.38;;;-0.23;100.00
5062;BME280;2351;50.812;12.872;2022-12-07T01:02:36;97645.19;;;-0.25;100.00
5062;BME280;2351;50.812;12.872;2022-12-07T01:05:08;97648.72;;;-0.26;100.00
5062;BME280;2351;50.812;12.872;2022-12-07T01:07:39;97647.03;;;-0.27;100.00
5062;BME280;2351;50.812;12.872;2022-12-07T01:10:11;97645.34;;;-0.28;100.00
5062;BME280;2351;50.812;12.872;2022-12-07T01:12:43;97644.41;;;-0.27;100.00
5062;BME280;2351;50.812;12.872;2022-12-07T01:15:15;97646.19;;;-0.28;100.00
5062;BME280;2351;50.812;12.872;2022-12-07T01:17:48;97647.16;;;-0.31;100.00
5062;BME280;2351;50.812;12.872;2022-12-07T01:20:20;97647.16;;;-0.31;100.00
5062;BME280;2351;50.812;12.872;2022-12-07T01:22:51;97650.69;;;-0.32;100.00
5062;BME280;2351;50.812;12.872;2022-12-07T01:25:23;97640.44;;;-0.35;100.00
5062;BME280;2351;50.812;12.872;2022-12-07T01:27:55;97645.84;;;-0.39;100.00
5062;BME280;2351;50.812;12.872;2022-12-07T01:30:26;97651.94;;;-0.40;100.00
5062;BME280;2351;50.812;12.872;2022-12-07T01:32:59;97645.97;;;-0.42;100.00
5062;BME280;2351;50.812;12.872;2022-12-07T01:35:33;97652.03;;;-0.42;100.00
5062;BME280;2351;50.812;12.872;2022-12-07T01:38:05;97642.47;;;-0.41;100.00
5062;BME280;2351;50.812;12.872;2022-12-07T01:40:37;97641.53;;;-0.40;100.00
5062;BME280;2351;50.812;12.872;2022-12-07T01:43:14;97645.78;;;-0.38;100.00
5062;BME280;2351;50.812;12.872;2022-12-07T01:45:48;97646.69;;;-0.39;100.00
5062;BME280;2351;50.812;12.872;2022-12-07T01:48:24;97642.19;;;-0.35;100.00
5062;BME280;2351;50.812;12.872;2022-12-07T01:51:00;97637.06;;;-0.37;100.00
5062;BME280;2351;50.812;12.872;2022-12-07T01:53:34;97631.16;;;-0.40;100.00
5062;BME280;2351;50.812;12.872;2022-12-07T01:56:09;97640.72;;;-0.41;100.00
5062;BME280;2351;50.812;12.872;2022-12-07T01:58:42;97640.84;;;-0.44;100.00
5062;BME280;2351;50.812;12.872;2022-12-07T02:01:14;97633.28;;;-0.49;100.00
5062;BME280;2351;50.812;12.872;2022-12-07T02:03:48;97624.63;;;-0.49;100.00
5062;BME280;2351;50.812;12.872;2022-12-07T02:06:23;97629.03;;;-0.51;100.00
5062;BME280;2351;50.812;12.872;2022-12-07T02:08:56;97630.81;;;-0.52;100.00
5062;BME280;2351;50.812;12.872;2022-12-07T02:11:27;97629.03;;;-0.51;100.00
5062;BME280;2351;50.812;12.872;2022-12-07T02:13:59;97628.34;;;-0.55;100.00
5062;BME280;2351;50.812;12.872;2022-12-07T02:16:36;97631.31;;;-0.63;100.00
5062;BME280;2351;50.812;12.872;2022-12-07T02:19:44;97627.38;;;-0.71;100.00
5062;BME280;2351;50.812;12.872;2022-12-07T02:22:48;97627.91;;;-0.84;100.00
5062;BME280;2351;50.812;12.872;2022-12-07T02:25:30;97621.25;;;-0.89;100.00
5062;BME280;2351;50.812;12.872;2022-12-07T02:28:06;97612.09;;;-0.98;100.00
5062;BME280;2351;50.812;12.872;2022-12-07T02:30:45;97608.81;;;-1.02;100.00
5062;BME280;2351;50.812;12.872;2022-12-07T02:33:25;97606.59;;;-1.11;100.00
5062;BME280;2351;50.812;12.872;2022-12-07T02:36:02;97605.06;;;-1.15;100.00
5062;BME280;2351;50.812;12.872;2022-12-07T02:38:39;97601.06;;;-1.23;100.00
5062;BME280;2351;50.812;12.872;2022-12-07T02:41:18;97593.44;;;-1.27;100.00
5062;BME280;2351;50.812;12.872;2022-12-07T02:43:55;97594.34;;;-1.28;100.00
5062;BME280;2351;50.812;12.872;2022-12-07T02:46:33;97594.47;;;-1.31;100.00
5062;BME280;2351;50.812;12.872;2022-12-07T02:49:08;97593.84;;;-1.37;100.00
5062;BME280;2351;50.812;12.872;2022-12-07T02:51:42;97588.94;;;-1.43;100.00
5062;BME280;2351;50.812;12.872;2022-12-07T02:54:19;97595.16;;;-1.47;100.00
5062;BME280;2351;50.812;12.872;2022-12-07T02:56:57;97596.25;;;-1.53;100.00
5062;BME280;2351;50.812;12.872;2022-12-07T02:59:36;97598.16;;;-1.56;100.00
5062;BME280;2351;50.812;12.872;2022-12-07T03:02:24;97595.59;;;-1.58;100.00
5062;BME280;2351;50.812;12.872;2022-12-07T03:05:06;97598.47;;;-1.64;100.00
5062;BME280;2351;50.812;12.872;2022-12-07T03:07:50;97594.25;;;-1.67;100.00
5062;BME280;2351;50.812;12.872;2022-12-07T03:10:28;97591.72;;;-1.68;100.00
5062;BME280;2351;50.812;12.872;2022-12-07T03:13:09;97591.84;;;-1.71;100.00
5062;BME280;2351;50.812;12.872;2022-12-07T03:15:47;97585.09;;;-1.75;100.00
5062;BME280;2351;50.812;12.872;2022-12-07T03:18:24;97584.97;;;-1.72;100.00
5062;BME280;2351;50.812;12.872;2022-12-07T03:21:02;97590.16;;;-1.72;100.00
5062;BME280;2351;50.812;12.872;2022-12-07T03:23:37;97583.22;;;-1.72;100.00
5062;BME280;2351;50.812;12.872;2022-12-07T03:26:12;97588.28;;;-1.69;100.00
5062;BME280;2351;50.812;12.872;2022-12-07T03:28:48;97581.41;;;-1.70;100.00
5062;BME280;2351;50.812;12.872;2022-12-07T03:31:26;97583.09;;;-1.69;100.00
5062;BME280;2351;50.812;12.872;2022-12-07T03:34:07;97576.09;;;-1.67;100.00
5062;BME280;2351;50.812;12.872;2022-12-07T03:36:46;97581.16;;;-1.63;100.00
5062;BME280;2351;50.812;12.872;2022-12-07T03:39:23;97575.06;;;-1.62;100.00
5062;BME280;2351;50.812;12.872;2022-12-07T03:41:59;97578.47;;;-1.62;100.00
5062;BME280;2351;50.812;12.872;2022-12-07T03:44:33;97579.59;;;-1.68;100.00
5062;BME280;2351;50.812;12.872;2022-12-07T03:47:12;97576.94;;;-1.66;100.00
5062;BME280;2351;50.812;12.872;2022-12-07T03:49:52;97578.59;;;-1.65;100.00
5062;BME280;2351;50.812;12.872;2022-12-07T03:52:28;97572.44;;;-1.62;100.00
5062;BME280;2351;50.812;12.872;2022-12-07T03:55:06;97571.47;;;-1.60;100.00
5062;BME280;2351;50.812;12.872;2022-12-07T03:57:41;97567.06;;;-1.58;100.00
5062;BME280;2351;50.812;12.872;2022-12-07T04:00:14;97562.78;;;-1.59;100.00
5062;BME280;2351;50.812;12.872;2022-12-07T04:02:46;97553.94;;;-1.55;100.00
5062;BME280;2351;50.812;12.872;2022-12-07T04:05:19;97560.75;;;-1.52;100.00
5062;BME280;2351;50.812;12.872;2022-12-07T04:07:51;97551.09;;;-1.48;100.00
5062;BME280;2351;50.812;12.872;2022-12-07T04:10:23;97549.34;;;-1.48;100.00
5062;BME280;2351;50.812;12.872;2022-12-07T04:12:55;97554.31;;;-1.43;100.00
5062;BME280;2351;50.812;12.872;2022-12-07T04:15:27;97540.38;;;-1.41;100.00
5062;BME280;2351;50.812;12.872;2022-12-07T04:17:58;97536.78;;;-1.38;100.00
5062;BME280;2351;50.812;12.872;2022-12-07T04:20:31;97532.31;;;-1.34;100.00
5062;BME280;2351;50.812;12.872;2022-12-07T04:23:03;97532.03;;;-1.28;100.00
5062;BME280;2351;50.812;12.872;2022-12-07T04:25:35;97520.69;;;-1.26;100.00
5062;BME280;2351;50.812;12.872;2022-12-07T04:28:06;97512.94;;;-1.27;100.00
5062;BME280;2351;50.812;12.872;2022-12-07T04:30:38;97513.84;;;-1.28;100.00
5062;BME280;2351;50.812;12.872;2022-12-07T04:33:10;97514.84;;;-1.31;100.00
5062;BME280;2351;50.812;12.872;2022-12-07T04:35:43;97509.91;;;-1.37;100.00
5062;BME280;2351;50.812;12.872;2022-12-07T04:38:15;97510.81;;;-1.38;100.00
5062;BME280;2351;50.812;12.872;2022-12-07T04:40:46;97525.91;;;-1.46;100.00
5062;BME280;2351;50.812;12.872;2022-12-07T04:43:18;97522.81;;;-1.55;100.00
5062;BME280;2351;50.812;12.872;2022-12-07T04:45:50;97524.63;;;-1.57;100.00
5062;BME280;2351;50.812;12.872;2022-12-07T04:48:22;97512.50;;;-1.56;100.00
5062;BME280;2351;50.812;12.872;2022-12-07T04:50:55;97508.06;;;-1.54;100.00
5062;BME280;2351;50.812;12.872;2022-12-07T04:53:26;97511.44;;;-1.52;100.00
5062;BME280;2351;50.812;12.872;2022-12-07T04:55:58;97505.41;;;-1.53;100.00
5062;BME280;2351;50.812;12.872;2022-12-07T04:58:31;97498.31;;;-1.49;100.00
5062;BME280;2351;50.812;12.872;2022-12-07T05:01:03;97492.16;;;-1.46;100.00
5062;BME280;2351;50.812;12.872;2022-12-07T05:03:35;97494.53;;;-1.42;100.00
5062;BME280;2351;50.812;12.872;2022-12-07T05:06:10;97500.44;;;-1.38;100.00
5062;BME280;2351;50.812;12.872;2022-12-07T05:08:42;97493.38;;;-1.34;100.00
5062;BME280;2351;50.812;12.872;2022-12-07T05:11:14;97498.13;;;-1.25;100.00
5062;BME280;2351;50.812;12.872;2022-12-07T05:14:00;97503.88;;;-1.18;100.00
5062;BME280;2351;50.812;12.872;2022-12-07T05:16:32;97497.78;;;-1.17;100.00
5062;BME280;2351;50.812;12.872;2022-12-07T05:19:04;97498.41;;;-1.12;100.00
5062;BME280;2351;50.812;12.872;2022-12-07T05:21:38;97499.88;;;-1.07;100.00
5062;BME280;2351;50.812;12.872;2022-12-07T05:24:11;97503.06;;;-1.00;100.00
5062;BME280;2351;50.812;12.872;2022-12-07T05:26:44;97491.91;;;-1.02;100.00
5062;BME280;2351;50.812;12.872;2022-12-07T05:29:16;97490.13;;;-1.01;100.00
5062;BME280;2351;50.812;12.872;2022-12-07T05:31:48;97493.50;;;-0.99;100.00
5062;BME280;2351;50.812;12.872;2022-12-07T05:34:20;97490.13;;;-1.01;100.00
5062;BME280;2351;50.812;12.872;2022-12-07T05:36:53;97487.47;;;-1.00;100.00
5062;BME280;2351;50.812;12.872;2022-12-07T05:39:24;97478.75;;;-0.99;100.00
5062;BME280;2351;50.812;12.872;2022-12-07T05:41:56;97473.41;;;-0.96;100.00
5062;BME280;2351;50.812;12.872;2022-12-07T05:44:45;97476.78;;;-0.94;100.00
5062;BME280;2351;50.812;12.872;2022-12-07T05:47:17;97485.47;;;-0.95;100.00
5062;BME280;2351;50.812;12.872;2022-12-07T05:49:48;97484.56;;;-0.94;100.00
5062;BME280;2351;50.812;12.872;2022-12-07T05:52:22;97481.78;;;-0.89;100.00
5062;BME280;2351;50.812;12.872;2022-12-07T05:54:54;97483.44;;;-0.88;100.00
5062;BME280;2351;50.812;12.872;2022-12-07T05:57:25;97480.16;;;-0.92;100.00
5062;BME280;2351;50.812;12.872;2022-12-07T05:59:57;97483.53;;;-0.89;100.00
5062;BME280;2351;50.812;12.872;2022-12-07T06:02:28;97477.53;;;-0.92;100.00
5062;BME280;2351;50.812;12.872;2022-12-07T06:04:59;97479.38;;;-0.94;100.00
5062;BME280;2351;50.812;12.872;2022-12-07T06:07:32;97481.06;;;-0.93;100.00
5062;BME280;2351;50.812;12.872;2022-12-07T06:10:05;97481.59;;;-0.86;100.00
5062;BME280;2351;50.812;12.872;2022-12-07T06:12:37;97480.69;;;-0.85;100.00
5062;BME280;2351;50.812;12.872;2022-12-07T06:15:10;97472.84;;;-0.83;100.00
5062;BME280;2351;50.812;12.872;2022-12-07T06:17:43;97475.50;;;-0.85;100.00
5062;BME280;2351;50.812;12.872;2022-12-07T06:20:15;97475.50;;;-0.85;100.00
5062;BME280;2351;50.812;12.872;2022-12-07T06:22:48;97472.69;;;-0.80;100.00
5062;BME280;2351;50.812;12.872;2022-12-07T06:25:19;97474.53;;;-0.82;100.00
5062;BME280;2351;50.812;12.872;2022-12-07T06:27:51;97470.09;;;-0.80;100.00
5062;BME280;2351;50.812;12.872;2022-12-07T06:30:23;97483.91;;;-0.80;100.00
5062;BME280;2351;50.812;12.872;2022-12-07T06:32:54;97473.47;;;-0.78;100.00
5062;BME280;2351;50.812;12.872;2022-12-07T06:35:26;97466.59;;;-0.79;100.00
5062;BME280;2351;50.812;12.872;2022-12-07T06:37:59;97471.84;;;-0.81;100.00
5062;BME280;2351;50.812;12.872;2022-12-07T06:40:31;97471.00;;;-0.81;100.00
5062;BME280;2351;50.812;12.872;2022-12-07T06:43:03;97470.09;;;-0.80;100.00
5062;BME280;2351;50.812;12.872;2022-12-07T06:45:34;97476.97;;;-0.79;100.00
5062;BME280;2351;50.812;12.872;2022-12-07T06:48:06;97476.97;;;-0.79;100.00
5062;BME280;2351;50.812;12.872;2022-12-07T06:50:38;97480.31;;;-0.77;100.00
5062;BME280;2351;50.812;12.872;2022-12-07T06:53:11;97489.75;;;-0.74;100.00
5062;BME280;2351;50.812;12.872;2022-12-07T06:55:43;97494.81;;;-0.71;100.00
5062;BME280;2351;50.812;12.872;2022-12-07T06:58:15;97487.06;;;-0.73;100.00
5062;BME280;2351;50.812;12.872;2022-12-07T07:00:47;97489.75;;;-0.74;100.00
5062;BME280;2351;50.812;12.872;2022-12-07T07:03:19;97491.50;;;-0.75;100.00
5062;BME280;2351;50.812;12.872;2022-12-07T07:05:51;97493.19;;;-0.74;100.00
5062;BME280;2351;50.812;12.872;2022-12-07T07:08:24;97503.56;;;-0.74;100.00
5062;BME280;2351;50.812;12.872;2022-12-07T07:10:56;97500.84;;;-0.71;100.00
5062;BME280;2351;50.812;12.872;2022-12-07T07:13:27;97502.47;;;-0.68;100.00
5062;BME280;2351;50.812;12.872;2022-12-07T07:16:00;97501.59;;;-0.69;100.00
5062;BME280;2351;50.812;12.872;2022-12-07T07:18:38;97502.25;;;-0.64;100.00
5062;BME280;2351;50.812;12.872;2022-12-07T07:21:10;97499.63;;;-0.64;100.00
5062;BME280;2351;50.812;12.872;2022-12-07T07:23:43;97501.25;;;-0.61;100.00
5062;BME280;2351;50.812;12.872;2022-12-07T07:26:14;97503.69;;;-0.58;100.00
5062;BME280;2351;50.812;12.872;2022-12-07T07:28:46;97503.69;;;-0.58;100.00
5062;BME280;2351;50.812;12.872;2022-12-07T07:31:18;97507.94;;;-0.55;100.00
5062;BME280;2351;50.812;12.872;2022-12-07T07:33:49;97506.25;;;-0.56;100.00
5062;BME280;2351;50.812;12.872;2022-12-07T07:36:21;97517.38;;;-0.54;100.00
5062;BME280;2351;50.812;12.872;2022-12-07T07:38:54;97509.56;;;-0.54;100.00
5062;BME280;2351;50.812;12.872;2022-12-07T07:41:26;97514.63;;;-0.51;100.00
5062;BME280;2351;50.812;12.872;2022-12-07T07:43:57;97516.19;;;-0.47;100.00
5062;BME280;2351;50.812;12.872;2022-12-07T07:46:29;97511.84;;;-0.47;100.00
5062;BME280;2351;50.812;12.872;2022-12-07T07:49:03;97513.56;;;-0.47;100.00
5062;BME280;2351;50.812;12.872;2022-12-07T07:51:35;97515.22;;;-0.44;100.00
5062;BME280;2351;50.812;12.872;2022-12-07T07:54:08;97519.56;;;-0.45;100.00
5062;BME280;2351;50.812;12.872;2022-12-07T07:56:39;97515.91;;;-0.41;100.00
5062;BME280;2351;50.812;12.872;2022-12-07T07:59:11;97513.28;;;-0.41;100.00
5062;BME280;2351;50.812;12.872;2022-12-07T08:01:43;97516.44;;;-0.34;100.00
5062;BME280;2351;50.812;12.872;2022-12-07T08:04:14;97511.91;;;-0.31;100.00
5062;BME280;2351;50.812;12.872;2022-12-07T08:06:46;97516.97;;;-0.27;100.00
5062;BME280;2351;50.812;12.872;2022-12-07T08:09:19;97516.91;;;-0.26;100.00
5062;BME280;2351;50.812;12.872;2022-12-07T08:11:51;97528.91;;;-0.23;100.00
5062;BME280;2351;50.812;12.872;2022-12-07T08:14:23;97524.72;;;-0.26;100.00
5062;BME280;2351;50.812;12.872;2022-12-07T08:16:56;97525.53;;;-0.25;100.00
5062;BME280;2351;50.812;12.872;2022-12-07T08:19:27;97530.69;;;-0.24;100.00
5062;BME280;2351;50.812;12.872;2022-12-07T08:21:59;97526.41;;;-0.25;100.00
5062;BME280;2351;50.812;12.872;2022-12-07T08:24:34;97525.41;;;-0.22;100.00
5062;BME280;2351;50.812;12.872;2022-12-07T08:27:06;97528.81;;;-0.22;100.00
5062;BME280;2351;50.812;12.872;2022-12-07T08:29:37;97525.25;;;-0.19;100.00
5062;BME280;2351;50.812;12.872;2022-12-07T08:32:09;97527.38;;;-0.10;100.00
5062;BME280;2351;50.812;12.872;2022-12-07T08:34:41;97521.50;;;0.04;100.00
5062;BME280;2351;50.812;12.872;2022-12-07T08:37:13;97528.84;;;0.31;100.00
5062;BME280;2351;50.812;12.872;2022-12-07T08:39:46;97523.75;;;0.45;100.00
5062;BME280;2351;50.812;12.872;2022-12-07T08:42:17;97528.88;;;0.47;100.00
5062;BME280;2351;50.812;12.872;2022-12-07T08:44:49;97537.44;;;0.67;100.00
5062;BME280;2351;50.812;12.872;2022-12-07T08:47:21;97537.91;;;0.57;100.00
5062;BME280;2351;50.812;12.872;2022-12-07T08:49:53;97534.22;;;0.62;100.00
5062;BME280;2351;50.812;12.872;2022-12-07T08:52:25;97535.44;;;0.72;100.00
5062;BME280;2351;50.812;12.872;2022-12-07T08:54:59;97535.03;;;0.80;100.00
5062;BME280;2351;50.812;12.872;2022-12-07T08:57:33;97532.31;;;0.81;100.00
5062;BME280;2351;50.812;12.872;2022-12-07T09:00:08;97526.44;;;0.78;100.00
5062;BME280;2351;50.812;12.872;2022-12-07T09:02:40;97532.56;;;0.77;100.00
5062;BME280;2351;50.812;12.872;2022-12-07T09:05:12;97538.03;;;0.72;100.00
5062;BME280;2351;50.812;12.872;2022-12-07T09:07:48;97531.00;;;0.90;100.00
5062;BME280;2351;50.812;12.872;2022-12-07T09:10:24;97527.31;;;1.10;100.00
5062;BME280;2351;50.812;12.872;2022-12-07T09:12:56;97537.34;;;1.50;100.00
5062;BME280;2351;50.812;12.872;2022-12-07T09:15:30;97523.88;;;1.88;100.00
5062;BME280;2351;50.812;12.872;2022-12-07T09:18:02;97525.97;;;2.57;100.00
5062;BME280;2351;50.812;12.872;2022-12-07T09:20:34;97516.25;;;2.45;100.00
5062;BME280;2351;50.812;12.872;2022-12-07T09:23:06;97519.28;;;2.53;100.00
5062;BME280;2351;50.812;12.872;2022-12-07T09:25:39;97519.50;;;2.34;100.00
5062;BME280;2351;50.812;12.872;2022-12-07T09:28:11;97530.16;;;2.45;100.00
5062;BME280;2351;50.812;12.872;2022-12-07T09:30:45;97516.09;;;2.62;100.00
5062;BME280;2351;50.812;12.872;2022-12-07T09:33:17;97520.19;;;2.52;100.00
5062;BME280;2351;50.812;12.872;2022-12-07T09:35:50;97512.31;;;2.23;100.00
5062;BME280;2351;50.812;12.872;2022-12-07T09:38:22;97515.00;;;2.21;100.00
5062;BME280;2351;50.812;12.872;2022-12-07T09:40:56;97520.38;;;2.04;100.00
5062;BME280;2351;50.812;12.872;2022-12-07T09:43:27;97522.84;;;1.91;100.00
5062;BME280;2351;50.812;12.872;2022-12-07T09:45:59;97521.38;;;1.87;100.00
5062;BME280;2351;50.812;12.872;2022-12-07T09:48:34;97525.25;;;1.79;100.00
5062;BME280;2351;50.812;12.872;2022-12-07T09:51:14;97522.06;;;1.74;100.00
5062;BME280;2351;50.812;12.872;2022-12-07T09:53:47;97522.50;;;1.67;100.00
5062;BME280;2351;50.812;12.872;2022-12-07T09:56:21;97520.91;;;1.64;100.00
5062;BME280;2351;50.812;12.872;2022-12-07T09:58:58;97511.47;;;1.61;100.00
5062;BME280;2351;50.812;12.872;2022-12-07T10:01:32;97515.19;;;1.57;100.00
5062;BME280;2351;50.812;12.872;2022-12-07T10:04:10;97509.78;;;1.60;100.00
5062;BME280;2351;50.812;12.872;2022-12-07T10:06:44;97508.59;;;1.66;100.00
5062;BME280;2351;50.812;12.872;2022-12-07T10:09:20;97496.56;;;1.63;100.00
5062;BME280;2351;50.812;12.872;2022-12-07T10:12:01;97495.06;;;1.59;100.00
5062;BME280;2351;50.812;12.872;2022-12-07T10:14:35;97496.84;;;1.59;100.00
5062;BME280;2351;50.812;12.872;2022-12-07T10:17:31;97504.09;;;1.54;100.00
5062;BME280;2351;50.812;12.872;2022-12-07T10:20:19;97503.44;;;1.50;100.00
5062;BME280;2351;50.812;12.872;2022-12-07T10:23:00;97495.44;;;1.53;100.00
5062;BME280;2351;50.812;12.872;2022-12-07T10:25:33;97493.66;;;1.54;100.00
5062;BME280;2351;50.812;12.872;2022-12-07T10:28:13;97497.00;;;1.56;100.00
5062;BME280;2351;50.812;12.872;2022-12-07T10:30:48;97491.63;;;1.59;100.00
5062;BME280;2351;50.812;12.872;2022-12-07T10:33:34;97491.63;;;1.59;100.00
5062;BME280;2351;50.812;12.872;2022-12-07T10:36:17;97494.13;;;1.60;100.00
5062;BME280;2351;50.812;12.872;2022-12-07T10:38:52;97490.00;;;1.56;100.00
5062;BME280;2351;50.812;12.872;2022-12-07T10:41:24;97488.34;;;1.55;100.00
5062;BME280;2351;50.812;12.872;2022-12-07T10:43:57;97493.00;;;1.50;100.00
5062;BME280;2351;50.812;12.872;2022-12-07T10:47:01;97485.81;;;1.54;100.00
5062;BME280;2351;50.812;12.872;2022-12-07T10:52:42;97480.50;;;1.55;100.00
5062;BME280;2351;50.812;12.872;2022-12-07T10:55:22;97483.13;;;1.55;100.00
5062;BME280;2351;50.812;12.872;2022-12-07T10:58:11;97471.75;;;1.56;100.00
5062;BME280;2351;50.812;12.872;2022-12-07T11:00:58;97476.25;;;1.54;100.00
5062;BME280;2351;50.812;12.872;2022-12-07T11:03:42;97468.59;;;1.51;100.00
5062;BME280;2351;50.812;12.872;2022-12-07T11:06:26;97476.16;;;1.56;100.00
5062;BME280;2351;50.812;12.872;2022-12-07T11:09:21;97468.81;;;1.62;100.00
5062;BME280;2351;50.812;12.872;2022-12-07T11:12:01;97464.06;;;1.69;100.00
5062;BME280;2351;50.812;12.872;2022-12-07T11:14:44;97462.13;;;1.73;100.00
5062;BME280;2351;50.812;12.872;2022-12-07T11:17:27;97451.25;;;1.80;100.00
5062;BME280;2351;50.812;12.872;2022-12-07T11:20:16;97472.19;;;1.79;100.00
5062;BME280;2351;50.812;12.872;2022-12-07T11:22:58;97465.97;;;1.82;100.00
5062;BME280;2351;50.812;12.872;2022-12-07T11:25:39;97465.06;;;1.83;100.00
5062;BME280;2351;50.812;12.872;2022-12-07T11:28:25;97462.16;;;1.87;100.00
5062;BME280;2351;50.812;12.872;2022-12-07T11:31:07;97457.13;;;1.84;100.00
5062;BME280;2351;50.812;12.872;2022-12-07T11:33:46;97449.28;;;1.84;100.00
5062;BME280;2351;50.812;12.872;2022-12-07T11:36:31;97452.00;;;1.83;100.00
5062;BME280;2351;50.812;12.872;2022-12-07T11:39:14;97451.84;;;1.86;100.00
5062;BME280;2351;50.812;12.872;2022-12-07T11:41:50;97447.63;;;1.83;100.00
5062;BME280;2351;50.812;12.872;2022-12-07T11:44:31;97439.31;;;1.76;100.00
5062;BME280;2351;50.812;12.872;2022-12-07T11:47:08;97444.53;;;1.76;100.00
5062;BME280;2351;50.812;12.872;2022-12-07T11:49:48;97436.88;;;1.73;100.00
5062;BME280;2351;50.812;12.872;2022-12-07T11:52:27;97436.69;;;1.76;100.00
5062;BME280;2351;50.812;12.872;2022-12-07T11:55:05;97436.53;;;1.79;100.00
5062;BME280;2351;50.812;12.872;2022-12-07T11:57:50;97441.47;;;1.84;100.00
5062;BME280;2351;50.812;12.872;2022-12-07T12:00:24;97441.41;;;1.86;100.00
5062;BME280;2351;50.812;12.872;2022-12-07T12:02:59;97438.22;;;1.95;100.00
5062;BME280;2351;50.812;12.872;2022-12-07T12:05:34;97437.00;;;2.01;100.00
5062;BME280;2351;50.812;12.872;2022-12-07T12:08:13;97425.00;;;2.13;100.00
5062;BME280;2351;50.812;12.872;2022-12-07T12:10:55;97420.00;;;2.09;100.00
5062;BME280;2351;50.812;12.872;2022-12-07T12:13:55;97424.06;;;2.14;100.00
5062;BME280;2351;50.812;12.872;2022-12-07T12:16:53;97422.03;;;2.19;100.00
5062;BME280;2351;50.812;12.872;2022-12-07T12:19:33;97423.06;;;2.16;100.00
5062;BME280;2351;50.812;12.872;2022-12-07T12:22:13;97427.53;;;2.14;100.00
5062;BME280;2351;50.812;12.872;2022-12-07T12:24:49;97412.88;;;2.11;100.00
5062;BME280;2351;50.812;12.872;2022-12-07T12:27:25;97415.69;;;2.08;100.00
5062;BME280;2351;50.812;12.872;2022-12-07T12:30:02;97423.72;;;2.05;100.00
5062;BME280;2351;50.812;12.872;2022-12-07T12:32:38;97422.97;;;2.03;100.00
5062;BME280;2351;50.812;12.872;2022-12-07T12:35:27;97410.66;;;2.05;100.00
5062;BME280;2351;50.812;12.872;2022-12-07T12:38:26;97410.66;;;2.05;100.00
5062;BME280;2351;50.812;12.872;2022-12-07T12:41:00;97414.09;;;2.06;100.00
5062;BME280;2351;50.812;12.872;2022-12-07T12:43:44;97411.84;;;2.00;100.00
5062;BME280;2351;50.812;12.872;2022-12-07T12:46:49;97413.72;;;1.98;100.00
5062;BME280;2351;50.812;12.872;2022-12-07T12:49:36;97412.22;;;1.93;100.00
5062;BME280;2351;50.812;12.872;2022-12-07T12:58:41;97403.47;;;1.94;100.00
5062;BME280;2351;50.812;12.872;2022-12-07T13:01:38;97400.00;;;1.94;100.00
5062;BME280;2351;50.812;12.872;2022-12-07T13:04:18;97392.75;;;1.99;100.00
5062;BME280;2351;50.812;12.872;2022-12-07T13:06:53;97393.31;;;2.04;100.00
5062;BME280;2351;50.812;12.872;2022-12-07T13:09:27;97381.53;;;2.11;100.00
5062;BME280;2351;50.812;12.872;2022-12-07T13:12:02;97389.66;;;2.21;100.00
5062;BME280;2351;50.812;12.872;2022-12-07T13:18:00;97388.53;;;2.25;100.00
5062;BME280;2351;50.812;12.872;2022-12-07T13:20:49;97381.75;;;2.23;100.00
5062;BME280;2351;50.812;12.872;2022-12-07T13:23:24;97395.72;;;2.22;100.00
5062;BME280;2351;50.812;12.872;2022-12-07T13:26:02;97390.16;;;2.28;100.00
5062;BME280;2351;50.812;12.872;2022-12-07T13:28:37;97381.56;;;2.26;99.64
5062;BME280;2351;50.812;12.872;2022-12-07T13:31:18;97386.59;;;2.29;100.00
5062;BME280;2351;50.812;12.872;2022-12-07T13:33:52;97384.66;;;2.18;98.63
5062;BME280;2351;50.812;12.872;2022-12-07T13:36:25;97386.97;;;2.23;98.87
5062;BME280;2351;50.812;12.872;2022-12-07T13:39:01;97388.94;;;2.19;98.54
5062;BME280;2351;50.812;12.872;2022-12-07T13:41:42;97388.19;;;2.17;98.67
5062;BME280;2351;50.812;12.872;2022-12-07T13:44:15;97385.47;;;2.19;98.86
5062;BME280;2351;50.812;12.872;2022-12-07T13:46:53;97389.19;;;2.15;98.42
5062;BME280;2351;50.812;12.872;2022-12-07T13:49:31;97383.97;;;2.15;98.78
5062;BME280;2351;50.812;12.872;2022-12-07T13:52:14;97377.94;;;2.14;98.43
5062;BME280;2351;50.812;12.872;2022-12-07T13:54:48;97386.50;;;2.16;98.63
5062;BME280;2351;50.812;12.872;2022-12-07T13:57:20;97388.81;;;2.21;98.92
5062;BME280;2351;50.812;12.872;2022-12-07T13:59:53;97387.16;;;2.20;98.67
5062;BME280;2351;50.812;12.872;2022-12-07T14:02:26;97382.78;;;2.20;97.86